createdAt,value
2023-03-11T00:01:15.553Z,88.58
2023-03-11T00:04:01.765Z,89.81
2023-03-11T00:06:48.120Z,90.27
2023-03-11T00:09:35.376Z,91.06
2023-03-11T00:12:22.079Z,91.33
2023-03-11T00:15:09.272Z,91.59
2023-03-11T00:17:55.994Z,93.07
2023-03-11T00:20:44.248Z,93.84
2023-03-11T00:23:30.840Z,94.07
2023-03-11T00:26:16.997Z,94.13
2023-03-11T00:29:03.436Z,93.53
2023-03-11T00:31:50.010Z,93.10
2023-03-11T00:34:36.365Z,93.76
2023-03-11T00:37:22.869Z,93.41
2023-03-11T00:40:14.107Z,93.65
2023-03-11T00:43:01.256Z,93.50
2023-03-11T00:45:48.315Z,93.75
2023-03-11T00:48:35.198Z,94.42
2023-03-11T00:51:24.886Z,94.59
2023-03-11T00:54:11.523Z,94.30
2023-03-11T00:56:57.844Z,94.87
2023-03-11T00:59:44.171Z,95.66
2023-03-11T01:02:30.370Z,97.20
2023-03-11T01:05:19.670Z,98.60
2023-03-11T01:08:06.250Z,99.02
2023-03-11T01:10:53.503Z,99.17
2023-03-11T01:13:40.254Z,99.65
2023-03-11T01:16:26.564Z,99.42
2023-03-11T01:19:13.641Z,98.77
2023-03-11T01:21:59.817Z,98.30
2023-03-11T01:24:47.269Z,98.86
2023-03-11T01:27:33.531Z,98.30
2023-03-11T01:30:23.878Z,98.57
2023-03-11T01:33:18.744Z,97.72
2023-03-11T01:36:05.603Z,98.02
2023-03-11T01:38:51.920Z,98.52
2023-03-11T01:41:38.262Z,98.60
2023-03-11T01:44:24.948Z,97.94
2023-03-11T01:47:11.761Z,97.79
2023-03-11T01:49:58.871Z,97.15
2023-03-11T01:52:45.512Z,97.83
2023-03-11T01:55:32.660Z,96.68
2023-03-11T01:58:27.220Z,96.37
2023-03-11T02:01:14.374Z,94.73
2023-03-11T02:04:03.789Z,94.81
2023-03-11T02:06:53.724Z,94.27
2023-03-11T02:09:41.369Z,94.25
2023-03-11T02:12:31.224Z,93.47
2023-03-11T02:15:18.121Z,93.56
2023-03-11T02:18:06.865Z,94.42
2023-03-11T02:21:05.496Z,95.49
2023-03-11T02:24:22.983Z,96.64
2023-03-11T02:27:12.877Z,96.22
2023-03-11T02:30:00.978Z,96.38
2023-03-11T02:32:48.564Z,97.04
2023-03-11T02:35:36.408Z,97.07
2023-03-11T02:38:23.727Z,97.90
2023-03-11T02:41:10.798Z,97.79
2023-03-11T02:43:58.833Z,97.12
2023-03-11T02:46:46.476Z,97.64
2023-03-11T02:49:34.633Z,96.15
2023-03-11T02:52:21.942Z,95.33
2023-03-11T02:55:09.934Z,93.87
2023-03-11T02:57:56.183Z,94.12
2023-03-11T03:00:42.627Z,94.08
2023-03-11T03:03:29.583Z,93.08
2023-03-11T03:06:16.171Z,94.00
2023-03-11T03:09:03.141Z,94.30
2023-03-11T03:11:49.944Z,94.43
2023-03-11T03:14:36.567Z,95.44
2023-03-11T03:17:22.795Z,94.70
2023-03-11T03:20:12.544Z,96.23
2023-03-11T03:23:15.888Z,95.79
2023-03-11T03:26:02.406Z,96.36
2023-03-11T03:28:49.534Z,96.71
2023-03-11T03:31:36.303Z,97.77
2023-03-11T03:34:22.889Z,98.66
2023-03-11T03:37:09.696Z,99.06
2023-03-11T03:39:55.994Z,98.08
2023-03-11T03:42:42.231Z,98.05
2023-03-11T03:45:28.661Z,98.19
2023-03-11T03:48:15.496Z,97.72
2023-03-11T03:51:07.187Z,97.54
2023-03-11T03:53:54.813Z,97.79
2023-03-11T03:56:43.240Z,98.63
2023-03-11T03:59:30.271Z,99.30
2023-03-11T04:02:18.996Z,99.22
2023-03-11T04:05:07.138Z,99.59
2023-03-11T04:07:54.850Z,100.00
2023-03-11T04:10:41.953Z,100.00
2023-03-11T04:13:28.618Z,100.00
2023-03-11T04:16:18.591Z,100.00
2023-03-11T04:19:05.752Z,100.00
2023-03-11T04:21:52.583Z,100.00
2023-03-11T04:24:40.804Z,100.00
2023-03-11T04:27:27.433Z,100.00
2023-03-11T04:30:14.160Z,100.00
2023-03-11T04:33:03.326Z,100.00
2023-03-11T04:35:50.652Z,100.00
2023-03-11T04:38:38.150Z,100.00
2023-03-11T04:41:26.825Z,100.00
2023-03-11T04:44:14.463Z,100.00
2023-03-11T04:47:01.220Z,100.00
2023-03-11T04:49:48.825Z,100.00
2023-03-11T04:52:35.032Z,100.00
2023-03-11T04:55:21.276Z,100.00
2023-03-11T04:58:07.810Z,100.00
2023-03-11T05:00:56.298Z,100.00
2023-03-11T05:03:43.447Z,100.00
2023-03-11T05:06:31.604Z,100.00
2023-03-11T05:09:19.786Z,100.00
2023-03-11T05:12:06.613Z,100.00
2023-03-11T05:14:55.287Z,100.00
2023-03-11T05:17:42.744Z,100.00
2023-03-11T05:20:31.158Z,100.00
2023-03-11T05:23:17.860Z,100.00
2023-03-11T05:26:04.471Z,100.00
2023-03-11T05:28:52.147Z,100.00
2023-03-11T05:31:38.904Z,100.00
2023-03-11T05:34:25.286Z,100.00
2023-03-11T05:37:12.849Z,100.00
2023-03-11T05:39:59.172Z,100.00
2023-03-11T05:42:45.942Z,100.00
2023-03-11T05:45:34.295Z,100.00
2023-03-11T05:48:22.007Z,100.00
2023-03-11T05:51:10.782Z,100.00
2023-03-11T05:54:00.527Z,100.00
2023-03-11T05:56:55.876Z,100.00
2023-03-11T05:59:43.218Z,100.00
2023-03-11T06:02:30.033Z,100.00
2023-03-11T06:05:16.485Z,100.00
2023-03-11T06:08:05.021Z,100.00
2023-03-11T06:10:51.404Z,100.00
2023-03-11T06:13:40.285Z,100.00
2023-03-11T06:16:29.937Z,100.00
2023-03-11T06:19:20.373Z,100.00
2023-03-11T06:22:09.757Z,100.00
2023-03-11T06:24:56.104Z,100.00
2023-03-11T06:27:44.638Z,100.00
2023-03-11T06:30:31.241Z,100.00
2023-03-11T06:33:44.123Z,100.00
2023-03-11T06:36:30.726Z,100.00
2023-03-11T06:39:18.021Z,100.00
2023-03-11T06:42:11.292Z,100.00
2023-03-11T06:44:58.050Z,100.00
2023-03-11T06:47:44.850Z,100.00
2023-03-11T06:50:31.476Z,99.85
2023-03-11T06:53:21.378Z,99.14
2023-03-11T06:56:12.687Z,97.61
2023-03-11T06:59:05.064Z,94.75
2023-03-11T07:01:54.740Z,95.44
2023-03-11T07:04:41.329Z,94.38
2023-03-11T07:07:27.863Z,94.09
2023-03-11T07:10:14.977Z,93.04
2023-03-11T07:13:01.516Z,93.12
2023-03-11T07:15:48.028Z,94.29
2023-03-11T07:18:36.165Z,93.91
2023-03-11T07:21:23.755Z,93.75
2023-03-11T07:24:13.037Z,92.91
2023-03-11T07:26:59.166Z,93.39
2023-03-11T07:29:45.595Z,92.96
2023-03-11T07:32:32.230Z,94.12
2023-03-11T07:35:18.863Z,94.05
2023-03-11T07:38:05.471Z,93.61
2023-03-11T07:40:59.433Z,93.82
2023-03-11T07:43:45.916Z,92.15
2023-03-11T07:46:32.775Z,92.02
2023-03-11T07:49:19.941Z,91.16
2023-03-11T07:52:06.701Z,89.51
2023-03-11T07:54:52.931Z,86.80
2023-03-11T07:57:39.296Z,86.47
2023-03-11T08:00:25.521Z,83.76
2023-03-11T08:03:11.645Z,82.56
2023-03-11T08:05:58.124Z,81.06
2023-03-11T08:08:45.109Z,80.33
2023-03-11T08:11:31.883Z,80.56
2023-03-11T08:14:17.958Z,81.15
2023-03-11T08:17:04.592Z,80.95
2023-03-11T08:19:50.757Z,81.66
2023-03-11T08:22:41.239Z,81.33
2023-03-11T08:25:38.875Z,79.37
2023-03-11T08:28:25.381Z,78.65
2023-03-11T08:31:24.287Z,77.83
2023-03-11T08:34:11.576Z,78.16
2023-03-11T08:36:57.973Z,77.51
2023-03-11T08:39:44.384Z,77.45
2023-03-11T08:42:30.862Z,75.09
2023-03-11T08:45:17.150Z,75.47
2023-03-11T08:48:03.842Z,74.77
2023-03-11T08:50:54.212Z,74.76
2023-03-11T08:53:41.327Z,73.38
2023-03-11T08:56:28.088Z,72.08
2023-03-11T08:59:14.806Z,71.49
2023-03-11T09:02:01.390Z,70.53
2023-03-11T09:04:47.779Z,70.03
2023-03-11T09:07:33.987Z,68.14
2023-03-11T09:10:20.604Z,68.55
2023-03-11T09:13:06.841Z,68.17
2023-03-11T09:15:53.554Z,67.68
2023-03-11T09:18:39.930Z,68.68
2023-03-11T09:21:26.333Z,68.64
2023-03-11T09:24:12.429Z,66.79
2023-03-11T09:26:58.916Z,66.33
2023-03-11T09:29:45.315Z,65.86
2023-03-11T09:32:31.634Z,65.52
2023-03-11T09:35:18.212Z,65.70
2023-03-11T09:38:04.349Z,65.21
2023-03-11T09:41:07.996Z,64.49
2023-03-11T09:44:16.447Z,65.32
2023-03-11T09:47:12.260Z,63.70
2023-03-11T09:50:18.267Z,63.60
2023-03-11T09:53:33.167Z,60.47
2023-03-11T09:56:22.299Z,60.67
2023-03-11T09:59:30.618Z,58.42
2023-03-11T10:02:22.750Z,58.93
2023-03-11T10:05:36.330Z,62.89
2023-03-11T10:08:28.179Z,60.90
2023-03-11T10:11:27.792Z,60.81
2023-03-11T10:14:47.585Z,62.46
2023-03-11T10:18:09.406Z,64.33
2023-03-11T10:21:25.602Z,61.62
2023-03-11T10:24:31.501Z,61.91
2023-03-11T10:27:25.041Z,62.96
2023-03-11T10:30:29.882Z,58.03
2023-03-11T10:33:46.583Z,57.43
2023-03-11T10:36:50.560Z,59.10
2023-03-11T10:39:38.042Z,55.34
2023-03-11T10:42:28.772Z,55.10
2023-03-11T10:45:15.551Z,56.28
2023-03-11T10:48:01.859Z,55.28
2023-03-11T10:51:01.000Z,56.46
2023-03-11T10:53:50.419Z,54.76
2023-03-11T10:56:39.518Z,56.30
2023-03-11T10:59:28.406Z,56.71
2023-03-11T11:02:28.278Z,58.77
2023-03-11T11:05:17.897Z,58.36
2023-03-11T11:08:15.932Z,56.36
2023-03-11T11:11:04.179Z,56.22
2023-03-11T11:13:58.350Z,55.27
2023-03-11T11:16:52.246Z,53.80
2023-03-11T11:19:45.051Z,50.82
2023-03-11T11:22:32.204Z,50.54
2023-03-11T11:25:40.777Z,46.68
2023-03-11T11:28:28.126Z,48.22
2023-03-11T11:31:25.179Z,45.63
2023-03-11T11:34:32.906Z,45.64
2023-03-11T11:37:20.793Z,47.09
2023-03-11T11:40:17.322Z,47.57
2023-03-11T11:43:12.282Z,48.00
2023-03-11T11:46:03.963Z,48.38
2023-03-11T11:49:20.858Z,49.86
2023-03-11T11:52:14.158Z,48.43
2023-03-11T11:55:21.149Z,49.43
2023-03-11T11:58:12.180Z,50.20
2023-03-11T12:01:10.183Z,49.45
2023-03-11T12:04:08.617Z,48.84
2023-03-11T12:07:11.957Z,48.64
2023-03-11T12:10:22.254Z,46.66
2023-03-11T12:13:29.141Z,47.86
2023-03-11T12:16:34.176Z,47.71
2023-03-11T12:19:37.250Z,49.05
2023-03-11T12:22:46.849Z,49.62
2023-03-11T12:26:08.831Z,49.66
2023-03-11T12:29:00.348Z,48.03
2023-03-11T12:31:47.672Z,48.69
2023-03-11T12:34:35.962Z,48.78
2023-03-11T12:37:23.443Z,48.05
2023-03-11T12:40:41.064Z,49.60
2023-03-11T12:43:47.350Z,46.70
2023-03-11T12:46:59.007Z,48.69
2023-03-11T12:49:47.593Z,49.29
2023-03-11T12:52:52.690Z,49.64
2023-03-11T12:55:39.846Z,47.10
2023-03-11T12:58:55.749Z,46.94
2023-03-11T13:02:19.767Z,46.74
2023-03-11T13:05:43.694Z,48.50
2023-03-11T13:08:46.216Z,47.51
2023-03-11T13:11:32.713Z,51.12
2023-03-11T13:14:26.347Z,47.18
2023-03-11T13:17:27.946Z,43.39
2023-03-11T13:20:39.169Z,49.15
2023-03-11T13:23:30.536Z,47.99
2023-03-11T13:26:29.221Z,46.73
2023-03-11T13:29:38.963Z,48.52
2023-03-11T13:32:36.210Z,48.00
2023-03-11T13:35:39.372Z,47.08
2023-03-11T13:38:42.856Z,45.05
2023-03-11T13:41:37.256Z,45.48
2023-03-11T13:44:31.593Z,45.28
2023-03-11T13:47:20.339Z,44.57
2023-03-11T13:50:40.547Z,44.74
2023-03-11T13:53:43.628Z,43.55
2023-03-11T13:56:37.761Z,44.73
2023-03-11T13:59:28.417Z,45.43
2023-03-11T14:02:19.133Z,44.03
2023-03-11T14:05:16.295Z,43.40
2023-03-11T14:08:29.510Z,45.24
2023-03-11T14:11:17.330Z,44.65
2023-03-11T14:14:31.009Z,44.70
2023-03-11T14:17:20.332Z,44.87
2023-03-11T14:20:20.079Z,44.93
2023-03-11T14:23:18.462Z,46.75
2023-03-11T14:26:13.242Z,46.56
2023-03-11T14:29:02.336Z,46.51
2023-03-11T14:31:48.697Z,44.89
2023-03-11T14:34:40.413Z,46.09
2023-03-11T14:37:36.529Z,45.12
2023-03-11T14:40:29.441Z,45.24
2023-03-11T14:43:15.928Z,46.23
2023-03-11T14:46:03.484Z,46.10
2023-03-11T14:48:50.412Z,46.73
2023-03-11T14:51:37.205Z,45.63
2023-03-11T14:54:28.495Z,46.34
2023-03-11T14:57:24.120Z,45.50
2023-03-11T15:00:18.726Z,46.58
2023-03-11T15:03:37.742Z,45.60
2023-03-11T15:06:27.802Z,45.65
2023-03-11T15:09:20.763Z,46.38
2023-03-11T15:12:07.531Z,45.63
2023-03-11T15:14:54.082Z,46.53
2023-03-11T15:17:53.143Z,46.06
2023-03-11T15:20:39.792Z,47.27
2023-03-11T15:23:26.115Z,47.91
2023-03-11T15:26:21.673Z,48.25
2023-03-11T15:29:16.796Z,49.27
2023-03-11T15:32:24.102Z,48.17
2023-03-11T15:35:14.128Z,47.82
2023-03-11T15:38:25.451Z,48.13
2023-03-11T15:41:11.784Z,48.08
2023-03-11T15:44:01.967Z,47.74
2023-03-11T15:46:48.366Z,47.70
2023-03-11T15:49:34.770Z,48.25
2023-03-11T15:52:21.592Z,47.58
2023-03-11T15:55:09.607Z,48.26
2023-03-11T15:58:05.247Z,48.75
2023-03-11T16:00:55.922Z,48.81
2023-03-11T16:03:42.407Z,48.22
2023-03-11T16:06:28.783Z,48.39
2023-03-11T16:09:16.107Z,49.35
2023-03-11T16:12:13.974Z,50.54
2023-03-11T16:15:00.407Z,48.90
2023-03-11T16:17:50.026Z,49.38
2023-03-11T16:20:49.902Z,49.31
2023-03-11T16:23:50.635Z,49.20
2023-03-11T16:26:37.999Z,50.51
2023-03-11T16:29:24.230Z,50.26
2023-03-11T16:32:11.394Z,49.07
2023-03-11T16:34:57.920Z,49.20
2023-03-11T16:37:44.464Z,49.58
2023-03-11T16:40:32.617Z,49.21
2023-03-11T16:43:18.797Z,49.84
2023-03-11T16:46:05.662Z,49.19
2023-03-11T16:48:53.484Z,49.12
2023-03-11T16:51:39.668Z,50.17
2023-03-11T16:54:25.956Z,49.54
2023-03-11T16:57:12.290Z,50.65
2023-03-11T16:59:58.865Z,50.88
2023-03-11T17:02:45.517Z,49.64
2023-03-11T17:05:31.831Z,50.92
2023-03-11T17:08:18.294Z,51.34
2023-03-11T17:11:04.718Z,50.86
2023-03-11T17:13:51.394Z,51.30
2023-03-11T17:16:37.535Z,50.71
2023-03-11T17:19:24.534Z,52.22
2023-03-11T17:22:12.027Z,52.71
2023-03-11T17:24:58.651Z,52.24
2023-03-11T17:27:45.305Z,53.16
2023-03-11T17:30:37.228Z,52.56
2023-03-11T17:33:24.001Z,54.06
2023-03-11T17:36:14.731Z,54.84
2023-03-11T17:39:01.143Z,54.21
2023-03-11T17:41:48.023Z,55.14
2023-03-11T17:44:50.176Z,56.65
2023-03-11T17:47:37.754Z,59.00
2023-03-11T17:50:26.173Z,64.18
2023-03-11T17:53:12.672Z,62.59
2023-03-11T17:55:59.990Z,63.29
2023-03-11T17:58:46.939Z,61.21
2023-03-11T18:01:33.378Z,60.90
2023-03-11T18:04:19.983Z,61.58
2023-03-11T18:07:06.176Z,61.77
2023-03-11T18:09:53.525Z,61.22
2023-03-11T18:12:44.118Z,60.70
2023-03-11T18:15:30.383Z,60.79
2023-03-11T18:18:16.778Z,61.29
2023-03-11T18:21:04.947Z,62.14
2023-03-11T18:23:56.215Z,62.19
2023-03-11T18:26:42.704Z,62.40
2023-03-11T18:29:29.221Z,62.65
2023-03-11T18:32:16.597Z,63.98
2023-03-11T18:35:03.113Z,65.03
2023-03-11T18:37:49.402Z,68.11
2023-03-11T18:40:35.899Z,72.30
2023-03-11T18:43:22.268Z,76.44
2023-03-11T18:46:11.201Z,79.95
2023-03-11T18:48:59.202Z,82.33
2023-03-11T18:51:45.612Z,85.78
2023-03-11T18:54:31.883Z,87.42
2023-03-11T18:57:18.419Z,90.68
2023-03-11T19:00:05.280Z,90.11
2023-03-11T19:02:54.715Z,90.66
2023-03-11T19:05:48.955Z,85.71
2023-03-11T19:08:36.764Z,90.92
2023-03-11T19:11:24.755Z,91.81
2023-03-11T19:14:11.591Z,91.99
2023-03-11T19:16:58.166Z,93.92
2023-03-11T19:19:44.406Z,94.89
2023-03-11T19:22:30.704Z,96.13
2023-03-11T19:25:16.977Z,97.44
2023-03-11T19:28:03.618Z,99.11
2023-03-11T19:30:52.292Z,100.00
2023-03-11T19:33:39.250Z,100.00
2023-03-11T19:36:27.496Z,100.00
2023-03-11T19:39:14.271Z,100.00
2023-03-11T19:42:01.069Z,100.00
2023-03-11T19:44:47.503Z,100.00
2023-03-11T19:47:33.874Z,100.00
2023-03-11T19:50:20.366Z,100.00
2023-03-11T19:53:06.412Z,100.00
2023-03-11T19:55:54.978Z,100.00
2023-03-11T19:58:42.654Z,100.00
2023-03-11T20:01:31.360Z,100.00
2023-03-11T20:04:18.028Z,100.00
2023-03-11T20:07:05.166Z,100.00
2023-03-11T20:09:51.564Z,100.00
2023-03-11T20:12:38.113Z,100.00
2023-03-11T20:15:24.453Z,100.00
2023-03-11T20:18:11.198Z,100.00
2023-03-11T20:20:57.636Z,100.00
2023-03-11T20:23:44.008Z,100.00
2023-03-11T20:26:30.545Z,100.00
2023-03-11T20:29:16.674Z,100.00
2023-03-11T20:32:04.426Z,100.00
2023-03-11T20:34:50.750Z,100.00
2023-03-11T20:37:37.259Z,100.00
2023-03-11T20:40:23.552Z,100.00
2023-03-11T20:43:09.937Z,100.00
2023-03-11T20:45:57.968Z,100.00
2023-03-11T20:48:44.737Z,100.00
2023-03-11T20:51:31.005Z,100.00
2023-03-11T20:54:17.870Z,100.00
2023-03-11T20:57:04.497Z,100.00
2023-03-11T20:59:51.273Z,100.00
2023-03-11T21:02:41.759Z,100.00
2023-03-11T21:05:28.186Z,100.00
2023-03-11T21:08:14.844Z,100.00
2023-03-11T21:11:01.706Z,100.00
2023-03-11T21:13:48.656Z,100.00
2023-03-11T21:16:37.208Z,100.00
2023-03-11T21:19:24.034Z,100.00
2023-03-11T21:22:11.876Z,100.00
2023-03-11T21:24:58.098Z,100.00
2023-03-11T21:27:44.782Z,100.00
2023-03-11T21:30:31.110Z,100.00
2023-03-11T21:33:17.693Z,100.00
2023-03-11T21:36:04.566Z,100.00
2023-03-11T21:38:51.547Z,100.00
2023-03-11T21:41:38.027Z,100.00
2023-03-11T21:44:24.423Z,100.00
2023-03-11T21:47:11.274Z,100.00
2023-03-11T21:49:57.747Z,100.00
2023-03-11T21:52:44.450Z,100.00
2023-03-11T21:55:32.619Z,100.00
2023-03-11T21:58:19.534Z,100.00
2023-03-11T22:01:07.025Z,100.00
2023-03-11T22:03:53.635Z,100.00
2023-03-11T22:06:40.240Z,100.00
2023-03-11T22:09:27.063Z,100.00
2023-03-11T22:12:13.648Z,100.00
2023-03-11T22:15:00.094Z,100.00
2023-03-11T22:17:46.579Z,100.00
2023-03-11T22:20:33.117Z,100.00
2023-03-11T22:23:19.310Z,100.00
2023-03-11T22:26:06.190Z,100.00
2023-03-11T22:28:52.423Z,100.00
2023-03-11T22:31:38.978Z,100.00
2023-03-11T22:34:25.303Z,100.00
2023-03-11T22:37:11.592Z,100.00
2023-03-11T22:39:57.841Z,100.00
2023-03-11T22:42:44.281Z,100.00
2023-03-11T22:45:30.744Z,100.00
2023-03-11T22:48:16.994Z,100.00
2023-03-11T22:51:03.618Z,100.00
2023-03-11T22:53:50.064Z,100.00
2023-03-11T22:56:36.661Z,100.00
2023-03-11T22:59:23.123Z,100.00
2023-03-11T23:02:09.329Z,100.00
2023-03-11T23:04:55.746Z,100.00
2023-03-11T23:07:42.493Z,100.00
2023-03-11T23:10:28.813Z,100.00
2023-03-11T23:13:15.707Z,100.00
2023-03-11T23:16:09.044Z,100.00
2023-03-11T23:18:55.958Z,100.00
2023-03-11T23:21:42.146Z,100.00
2023-03-11T23:24:28.459Z,100.00
2023-03-11T23:27:15.023Z,100.00
2023-03-11T23:30:01.465Z,100.00
2023-03-11T23:32:47.676Z,100.00
2023-03-11T23:35:34.441Z,100.00
2023-03-11T23:38:20.780Z,100.00
2023-03-11T23:41:13.143Z,100.00
2023-03-11T23:43:59.570Z,100.00
2023-03-11T23:46:45.805Z,100.00
2023-03-11T23:49:32.208Z,100.00
2023-03-11T23:52:18.753Z,100.00
2023-03-11T23:55:05.439Z,100.00
2023-03-11T23:57:51.996Z,100.00
